Terminal Aerodrome Forecast
Issued by NWS

Home | Current Version | Previous Version | Text Only | Print | Product List | Glossary On
Versions: 1 2 3 4 5 6 7 8 9 10 11 12 13
000
FTUS44 KJAN 281237 AAA
TAFHKS
TAF AMD
KHKS 281237Z 2813/2912 02012G20KT P6SM VCTS SCT015 BKN050CB
     FM281400 03012KT P6SM VCSH BKN050
     FM281700 18012G19KT P6SM BKN070
     FM282000 20010KT P6SM VCTS BKN050CB
     FM290500 17004KT P6SM BKN070
     FM290900 17004KT P6SM BKN025=

USA.gov is the U.S. government's official web portal to all federal, state and local government web resources and services.